sensor_id;sensor_type;location;lat;lon;timestamp;P1;durP1;ratioP1;P2;durP2;ratioP2
51467;SDS011;37545;45.302;-122.946;2023-11-22T00:00:12;6.20;;;3.50;;
51467;SDS011;37545;45.302;-122.946;2023-11-22T00:02:43;6.57;;;3.95;;
51467;SDS011;37545;45.302;-122.946;2023-11-22T00:05:12;7.00;;;3.35;;
51467;SDS011;37545;45.302;-122.946;2023-11-22T00:07:41;5.85;;;3.72;;
51467;SDS011;37545;45.302;-122.946;2023-11-22T00:10:10;6.65;;;3.50;;
51467;SDS011;37545;45.302;-122.946;2023-11-22T00:12:39;6.63;;;3.60;;
51467;SDS011;37545;45.302;-122.946;2023-11-22T00:15:10;6.35;;;3.38;;
51467;SDS011;37545;45.302;-122.946;2023-11-22T00:17:43;5.75;;;3.30;;
51467;SDS011;37545;45.302;-122.946;2023-11-22T00:20:13;8.68;;;3.10;;
51467;SDS011;37545;45.302;-122.946;2023-11-22T00:22:43;6.25;;;3.72;;
51467;SDS011;37545;45.302;-122.946;2023-11-22T00:25:12;10.25;;;3.72;;
51467;SDS011;37545;45.302;-122.946;2023-11-22T00:27:41;5.50;;;2.85;;
51467;SDS011;37545;45.302;-122.946;2023-11-22T00:30:12;8.68;;;4.35;;
51467;SDS011;37545;45.302;-122.946;2023-11-22T00:32:43;6.97;;;3.58;;
51467;SDS011;37545;45.302;-122.946;2023-11-22T00:35:12;6.70;;;3.47;;
51467;SDS011;37545;45.302;-122.946;2023-11-22T00:37:40;6.70;;;4.05;;
51467;SDS011;37545;45.302;-122.946;2023-11-22T00:40:09;8.65;;;4.40;;
51467;SDS011;37545;45.302;-122.946;2023-11-22T00:42:39;7.40;;;4.47;;
51467;SDS011;37545;45.302;-122.946;2023-11-22T00:45:09;10.05;;;4.22;;
51467;SDS011;37545;45.302;-122.946;2023-11-22T00:47:39;4.82;;;2.90;;
51467;SDS011;37545;45.302;-122.946;2023-11-22T00:50:08;9.93;;;4.40;;
51467;SDS011;37545;45.302;-122.946;2023-11-22T00:52:37;8.48;;;4.68;;
51467;SDS011;37545;45.302;-122.946;2023-11-22T00:55:10;8.48;;;4.68;;
51467;SDS011;37545;45.302;-122.946;2023-11-22T00:57:39;18.15;;;6.35;;
51467;SDS011;37545;45.302;-122.946;2023-11-22T01:00:08;25.00;;;7.72;;
51467;SDS011;37545;45.302;-122.946;2023-11-22T01:02:40;9.40;;;4.40;;
51467;SDS011;37545;45.302;-122.946;2023-11-22T01:05:11;8.73;;;4.05;;
51467;SDS011;37545;45.302;-122.946;2023-11-22T01:07:41;7.18;;;3.90;;
51467;SDS011;37545;45.302;-122.946;2023-11-22T01:10:10;8.80;;;3.97;;
51467;SDS011;37545;45.302;-122.946;2023-11-22T01:12:38;7.50;;;4.10;;
51467;SDS011;37545;45.302;-122.946;2023-11-22T01:15:07;5.47;;;3.40;;
51467;SDS011;37545;45.302;-122.946;2023-11-22T01:17:37;5.57;;;3.25;;
51467;SDS011;37545;45.302;-122.946;2023-11-22T01:20:08;5.88;;;3.55;;
51467;SDS011;37545;45.302;-122.946;2023-11-22T01:22:38;6.70;;;3.35;;
51467;SDS011;37545;45.302;-122.946;2023-11-22T01:25:06;4.85;;;3.17;;
51467;SDS011;37545;45.302;-122.946;2023-11-22T01:27:35;5.80;;;3.53;;
51467;SDS011;37545;45.302;-122.946;2023-11-22T01:30:04;8.05;;;3.45;;
51467;SDS011;37545;45.302;-122.946;2023-11-22T01:32:34;7.80;;;3.53;;
51467;SDS011;37545;45.302;-122.946;2023-11-22T01:35:03;8.32;;;3.30;;
51467;SDS011;37545;45.302;-122.946;2023-11-22T01:37:34;12.02;;;4.03;;
51467;SDS011;37545;45.302;-122.946;2023-11-22T01:40:03;6.60;;;3.95;;
51467;SDS011;37545;45.302;-122.946;2023-11-22T01:42:34;6.18;;;3.63;;
51467;SDS011;37545;45.302;-122.946;2023-11-22T01:45:05;17.42;;;4.45;;
51467;SDS011;37545;45.302;-122.946;2023-11-22T01:47:35;19.52;;;4.45;;
51467;SDS011;37545;45.302;-122.946;2023-11-22T01:50:06;7.32;;;4.30;;
51467;SDS011;37545;45.302;-122.946;2023-11-22T01:52:39;8.63;;;3.80;;
51467;SDS011;37545;45.302;-122.946;2023-11-22T01:55:09;8.05;;;3.85;;
51467;SDS011;37545;45.302;-122.946;2023-11-22T01:57:38;7.15;;;4.00;;
51467;SDS011;37545;45.302;-122.946;2023-11-22T02:00:07;9.27;;;4.38;;
51467;SDS011;37545;45.302;-122.946;2023-11-22T02:02:40;12.60;;;4.60;;
51467;SDS011;37545;45.302;-122.946;2023-11-22T02:05:09;10.68;;;5.05;;
51467;SDS011;37545;45.302;-122.946;2023-11-22T02:07:40;17.45;;;7.07;;
51467;SDS011;37545;45.302;-122.946;2023-11-22T02:10:09;13.15;;;6.07;;
51467;SDS011;37545;45.302;-122.946;2023-11-22T02:12:37;11.55;;;6.75;;
51467;SDS011;37545;45.302;-122.946;2023-11-22T02:15:06;12.00;;;6.63;;
51467;SDS011;37545;45.302;-122.946;2023-11-22T02:17:35;14.38;;;6.40;;
51467;SDS011;37545;45.302;-122.946;2023-11-22T02:20:05;12.02;;;6.90;;
51467;SDS011;37545;45.302;-122.946;2023-11-22T02:22:44;12.75;;;6.10;;
51467;SDS011;37545;45.302;-122.946;2023-11-22T02:25:14;10.35;;;5.80;;
51467;SDS011;37545;45.302;-122.946;2023-11-22T02:27:43;13.45;;;5.55;;
51467;SDS011;37545;45.302;-122.946;2023-11-22T02:30:12;11.15;;;6.20;;
51467;SDS011;37545;45.302;-122.946;2023-11-22T02:32:44;11.63;;;5.57;;
51467;SDS011;37545;45.302;-122.946;2023-11-22T02:35:13;14.60;;;6.13;;
51467;SDS011;37545;45.302;-122.946;2023-11-22T02:37:43;13.82;;;6.15;;
51467;SDS011;37545;45.302;-122.946;2023-11-22T02:40:16;13.52;;;7.00;;
51467;SDS011;37545;45.302;-122.946;2023-11-22T02:42:46;12.13;;;6.07;;
51467;SDS011;37545;45.302;-122.946;2023-11-22T02:45:15;12.65;;;6.28;;
51467;SDS011;37545;45.302;-122.946;2023-11-22T02:47:44;14.60;;;6.18;;
51467;SDS011;37545;45.302;-122.946;2023-11-22T02:50:13;12.02;;;6.40;;
51467;SDS011;37545;45.302;-122.946;2023-11-22T02:52:42;13.70;;;7.15;;
51467;SDS011;37545;45.302;-122.946;2023-11-22T02:55:12;16.20;;;6.45;;
51467;SDS011;37545;45.302;-122.946;2023-11-22T02:57:43;15.30;;;6.68;;
51467;SDS011;37545;45.302;-122.946;2023-11-22T03:00:12;12.95;;;6.40;;
51467;SDS011;37545;45.302;-122.946;2023-11-22T03:02:41;14.02;;;5.55;;
51467;SDS011;37545;45.302;-122.946;2023-11-22T03:05:10;13.65;;;6.05;;
51467;SDS011;37545;45.302;-122.946;2023-11-22T03:07:39;12.25;;;5.57;;
51467;SDS011;37545;45.302;-122.946;2023-11-22T03:10:08;13.00;;;6.15;;
51467;SDS011;37545;45.302;-122.946;2023-11-22T03:12:38;12.98;;;5.57;;
51467;SDS011;37545;45.302;-122.946;2023-11-22T03:15:09;13.55;;;5.55;;
51467;SDS011;37545;45.302;-122.946;2023-11-22T03:17:37;11.02;;;5.72;;
51467;SDS011;37545;45.302;-122.946;2023-11-22T03:20:07;16.52;;;5.15;;
51467;SDS011;37545;45.302;-122.946;2023-11-22T03:22:36;11.82;;;5.43;;
51467;SDS011;37545;45.302;-122.946;2023-11-22T03:25:05;13.35;;;6.03;;
51467;SDS011;37545;45.302;-122.946;2023-11-22T03:27:36;12.73;;;5.47;;
51467;SDS011;37545;45.302;-122.946;2023-11-22T03:30:06;11.45;;;5.68;;
51467;SDS011;37545;45.302;-122.946;2023-11-22T03:32:37;11.30;;;6.45;;
51467;SDS011;37545;45.302;-122.946;2023-11-22T03:35:07;9.63;;;5.30;;
51467;SDS011;37545;45.302;-122.946;2023-11-22T03:37:36;9.80;;;5.00;;
51467;SDS011;37545;45.302;-122.946;2023-11-22T03:40:05;10.50;;;5.20;;
51467;SDS011;37545;45.302;-122.946;2023-11-22T03:42:35;6.90;;;4.65;;
51467;SDS011;37545;45.302;-122.946;2023-11-22T03:45:04;12.73;;;5.93;;
51467;SDS011;37545;45.302;-122.946;2023-11-22T03:47:35;10.23;;;5.30;;
51467;SDS011;37545;45.302;-122.946;2023-11-22T03:50:06;10.38;;;4.57;;
51467;SDS011;37545;45.302;-122.946;2023-11-22T03:52:35;10.63;;;4.68;;
51467;SDS011;37545;45.302;-122.946;2023-11-22T03:55:04;8.98;;;4.97;;
51467;SDS011;37545;45.302;-122.946;2023-11-22T03:57:33;7.72;;;4.68;;
51467;SDS011;37545;45.302;-122.946;2023-11-22T04:00:02;9.75;;;4.32;;
51467;SDS011;37545;45.302;-122.946;2023-11-22T04:02:32;13.65;;;5.00;;
51467;SDS011;37545;45.302;-122.946;2023-11-22T04:05:03;11.70;;;5.68;;
51467;SDS011;37545;45.302;-122.946;2023-11-22T04:07:32;8.18;;;4.72;;
51467;SDS011;37545;45.302;-122.946;2023-11-22T04:10:01;10.60;;;5.15;;
51467;SDS011;37545;45.302;-122.946;2023-11-22T04:12:31;8.05;;;4.63;;
51467;SDS011;37545;45.302;-122.946;2023-11-22T04:15:07;7.10;;;4.85;;
51467;SDS011;37545;45.302;-122.946;2023-11-22T04:17:38;9.30;;;4.55;;
51467;SDS011;37545;45.302;-122.946;2023-11-22T04:20:07;9.38;;;4.72;;
51467;SDS011;37545;45.302;-122.946;2023-11-22T04:22:40;7.70;;;4.32;;
51467;SDS011;37545;45.302;-122.946;2023-11-22T04:25:10;14.25;;;5.20;;
51467;SDS011;37545;45.302;-122.946;2023-11-22T04:27:39;6.20;;;4.43;;
51467;SDS011;37545;45.302;-122.946;2023-11-22T04:30:09;6.22;;;4.00;;
51467;SDS011;37545;45.302;-122.946;2023-11-22T04:32:41;9.63;;;5.00;;
51467;SDS011;37545;45.302;-122.946;2023-11-22T04:35:10;12.20;;;4.68;;
51467;SDS011;37545;45.302;-122.946;2023-11-22T04:37:39;8.02;;;4.70;;
51467;SDS011;37545;45.302;-122.946;2023-11-22T04:40:10;6.95;;;3.97;;
51467;SDS011;37545;45.302;-122.946;2023-11-22T04:42:40;11.63;;;5.22;;
51467;SDS011;37545;45.302;-122.946;2023-11-22T04:45:08;10.27;;;5.60;;
51467;SDS011;37545;45.302;-122.946;2023-11-22T04:47:37;9.55;;;5.00;;
51467;SDS011;37545;45.302;-122.946;2023-11-22T04:50:08;9.70;;;4.95;;
51467;SDS011;37545;45.302;-122.946;2023-11-22T04:52:37;8.65;;;4.43;;
51467;SDS011;37545;45.302;-122.946;2023-11-22T04:55:06;11.90;;;5.10;;
51467;SDS011;37545;45.302;-122.946;2023-11-22T04:57:35;9.95;;;5.18;;
51467;SDS011;37545;45.302;-122.946;2023-11-22T05:00:06;8.27;;;4.15;;
51467;SDS011;37545;45.302;-122.946;2023-11-22T05:02:35;12.10;;;4.45;;
51467;SDS011;37545;45.302;-122.946;2023-11-22T05:05:04;7.55;;;3.90;;
51467;SDS011;37545;45.302;-122.946;2023-11-22T05:07:37;10.07;;;5.17;;
51467;SDS011;37545;45.302;-122.946;2023-11-22T05:10:06;9.25;;;4.63;;
51467;SDS011;37545;45.302;-122.946;2023-11-22T05:12:35;8.43;;;4.47;;
51467;SDS011;37545;45.302;-122.946;2023-11-22T05:15:04;10.55;;;4.93;;
51467;SDS011;37545;45.302;-122.946;2023-11-22T05:17:33;12.05;;;4.65;;
51467;SDS011;37545;45.302;-122.946;2023-11-22T05:20:02;10.57;;;5.10;;
51467;SDS011;37545;45.302;-122.946;2023-11-22T05:22:34;9.05;;;5.13;;
51467;SDS011;37545;45.302;-122.946;2023-11-22T05:25:05;15.07;;;5.95;;
51467;SDS011;37545;45.302;-122.946;2023-11-22T05:27:34;9.93;;;5.25;;
51467;SDS011;37545;45.302;-122.946;2023-11-22T05:30:03;12.55;;;5.65;;
51467;SDS011;37545;45.302;-122.946;2023-11-22T05:32:32;13.52;;;5.70;;
51467;SDS011;37545;45.302;-122.946;2023-11-22T05:35:00;13.73;;;6.25;;
51467;SDS011;37545;45.302;-122.946;2023-11-22T05:37:31;14.85;;;7.13;;
51467;SDS011;37545;45.302;-122.946;2023-11-22T05:40:01;17.25;;;7.78;;
51467;SDS011;37545;45.302;-122.946;2023-11-22T05:42:36;17.90;;;7.70;;
51467;SDS011;37545;45.302;-122.946;2023-11-22T05:45:07;15.95;;;7.00;;
51467;SDS011;37545;45.302;-122.946;2023-11-22T05:47:36;15.32;;;6.75;;
51467;SDS011;37545;45.302;-122.946;2023-11-22T05:50:05;17.02;;;7.22;;
51467;SDS011;37545;45.302;-122.946;2023-11-22T05:52:35;22.08;;;7.53;;
51467;SDS011;37545;45.302;-122.946;2023-11-22T05:55:05;17.02;;;6.13;;
51467;SDS011;37545;45.302;-122.946;2023-11-22T05:57:34;13.07;;;6.57;;
51467;SDS011;37545;45.302;-122.946;2023-11-22T06:00:03;13.63;;;6.32;;
51467;SDS011;37545;45.302;-122.946;2023-11-22T06:02:32;17.10;;;6.70;;
51467;SDS011;37545;45.302;-122.946;2023-11-22T06:05:07;15.60;;;5.90;;
51467;SDS011;37545;45.302;-122.946;2023-11-22T06:07:36;13.77;;;6.45;;
51467;SDS011;37545;45.302;-122.946;2023-11-22T06:10:07;13.77;;;4.97;;
51467;SDS011;37545;45.302;-122.946;2023-11-22T06:12:36;17.00;;;5.63;;
51467;SDS011;37545;45.302;-122.946;2023-11-22T06:15:07;15.93;;;6.10;;
51467;SDS011;37545;45.302;-122.946;2023-11-22T06:17:36;11.98;;;5.85;;
51467;SDS011;37545;45.302;-122.946;2023-11-22T06:20:05;13.52;;;6.18;;
51467;SDS011;37545;45.302;-122.946;2023-11-22T06:22:35;13.45;;;6.07;;
51467;SDS011;37545;45.302;-122.946;2023-11-22T06:25:08;15.32;;;6.57;;
51467;SDS011;37545;45.302;-122.946;2023-11-22T06:27:37;10.05;;;5.35;;
51467;SDS011;37545;45.302;-122.946;2023-11-22T06:30:06;15.23;;;6.00;;
51467;SDS011;37545;45.302;-122.946;2023-11-22T06:32:36;13.13;;;5.93;;
51467;SDS011;37545;45.302;-122.946;2023-11-22T06:35:04;11.43;;;6.18;;
51467;SDS011;37545;45.302;-122.946;2023-11-22T06:37:34;14.02;;;5.65;;
51467;SDS011;37545;45.302;-122.946;2023-11-22T06:40:06;10.60;;;5.55;;
51467;SDS011;37545;45.302;-122.946;2023-11-22T06:42:38;11.43;;;5.47;;
51467;SDS011;37545;45.302;-122.946;2023-11-22T06:45:07;16.55;;;7.00;;
51467;SDS011;37545;45.302;-122.946;2023-11-22T06:47:38;11.98;;;4.85;;
51467;SDS011;37545;45.302;-122.946;2023-11-22T06:50:07;11.40;;;5.28;;
51467;SDS011;37545;45.302;-122.946;2023-11-22T06:52:36;11.95;;;5.75;;
51467;SDS011;37545;45.302;-122.946;2023-11-22T06:55:05;8.27;;;4.90;;
51467;SDS011;37545;45.302;-122.946;2023-11-22T06:57:36;11.77;;;5.57;;
51467;SDS011;37545;45.302;-122.946;2023-11-22T07:00:05;10.63;;;5.47;;
51467;SDS011;37545;45.302;-122.946;2023-11-22T07:02:35;8.75;;;5.55;;
51467;SDS011;37545;45.302;-122.946;2023-11-22T07:05:04;12.73;;;5.82;;
51467;SDS011;37545;45.302;-122.946;2023-11-22T07:07:34;11.48;;;5.43;;
51467;SDS011;37545;45.302;-122.946;2023-11-22T07:10:05;12.82;;;5.93;;
51467;SDS011;37545;45.302;-122.946;2023-11-22T07:12:37;12.00;;;5.40;;
51467;SDS011;37545;45.302;-122.946;2023-11-22T07:15:06;11.07;;;5.35;;
51467;SDS011;37545;45.302;-122.946;2023-11-22T07:17:35;10.02;;;5.32;;
51467;SDS011;37545;45.302;-122.946;2023-11-22T07:20:05;12.75;;;5.55;;
51467;SDS011;37545;45.302;-122.946;2023-11-22T07:22:48;8.70;;;5.07;;
51467;SDS011;37545;45.302;-122.946;2023-11-22T07:25:22;12.75;;;5.32;;
51467;SDS011;37545;45.302;-122.946;2023-11-22T07:27:52;9.10;;;5.10;;
51467;SDS011;37545;45.302;-122.946;2023-11-22T07:30:21;11.68;;;5.57;;
51467;SDS011;37545;45.302;-122.946;2023-11-22T07:32:53;9.90;;;5.53;;
51467;SDS011;37545;45.302;-122.946;2023-11-22T07:35:21;10.93;;;4.75;;
51467;SDS011;37545;45.302;-122.946;2023-11-22T07:37:51;8.23;;;3.92;;
51467;SDS011;37545;45.302;-122.946;2023-11-22T07:40:20;8.13;;;4.60;;
51467;SDS011;37545;45.302;-122.946;2023-11-22T07:42:51;9.45;;;4.18;;
51467;SDS011;37545;45.302;-122.946;2023-11-22T07:45:20;8.27;;;4.20;;
51467;SDS011;37545;45.302;-122.946;2023-11-22T07:47:48;13.18;;;3.97;;
51467;SDS011;37545;45.302;-122.946;2023-11-22T07:50:18;6.10;;;4.00;;
51467;SDS011;37545;45.302;-122.946;2023-11-22T07:52:47;7.57;;;3.85;;
51467;SDS011;37545;45.302;-122.946;2023-11-22T07:55:16;7.70;;;4.30;;
51467;SDS011;37545;45.302;-122.946;2023-11-22T07:57:46;6.57;;;3.42;;
51467;SDS011;37545;45.302;-122.946;2023-11-22T08:00:16;5.80;;;3.53;;
51467;SDS011;37545;45.302;-122.946;2023-11-22T08:02:46;6.47;;;3.70;;
51467;SDS011;37545;45.302;-122.946;2023-11-22T08:05:16;7.72;;;4.13;;
51467;SDS011;37545;45.302;-122.946;2023-11-22T08:07:44;7.50;;;3.95;;
51467;SDS011;37545;45.302;-122.946;2023-11-22T08:10:14;8.70;;;3.97;;
51467;SDS011;37545;45.302;-122.946;2023-11-22T08:12:47;8.68;;;3.85;;
51467;SDS011;37545;45.302;-122.946;2023-11-22T08:15:16;8.02;;;3.25;;
51467;SDS011;37545;45.302;-122.946;2023-11-22T08:17:45;7.65;;;3.20;;
51467;SDS011;37545;45.302;-122.946;2023-11-22T08:20:14;5.90;;;3.08;;
51467;SDS011;37545;45.302;-122.946;2023-11-22T08:22:44;6.47;;;3.22;;
51467;SDS011;37545;45.302;-122.946;2023-11-22T08:25:15;5.50;;;2.90;;
51467;SDS011;37545;45.302;-122.946;2023-11-22T08:27:44;7.60;;;3.28;;
51467;SDS011;37545;45.302;-122.946;2023-11-22T08:30:14;6.55;;;3.40;;
51467;SDS011;37545;45.302;-122.946;2023-11-22T08:32:43;5.57;;;3.20;;
51467;SDS011;37545;45.302;-122.946;2023-11-22T08:35:18;8.82;;;3.45;;
51467;SDS011;37545;45.302;-122.946;2023-11-22T08:37:48;5.55;;;3.25;;
51467;SDS011;37545;45.302;-122.946;2023-11-22T08:40:17;5.50;;;3.22;;
51467;SDS011;37545;45.302;-122.946;2023-11-22T08:42:47;5.25;;;3.08;;
51467;SDS011;37545;45.302;-122.946;2023-11-22T08:45:18;8.10;;;3.70;;
51467;SDS011;37545;45.302;-122.946;2023-11-22T08:47:46;11.98;;;3.90;;
51467;SDS011;37545;45.302;-122.946;2023-11-22T08:50:16;9.88;;;3.58;;
51467;SDS011;37545;45.302;-122.946;2023-11-22T08:52:45;9.23;;;4.22;;
51467;SDS011;37545;45.302;-122.946;2023-11-22T08:55:14;5.85;;;3.45;;
51467;SDS011;37545;45.302;-122.946;2023-11-22T08:57:42;7.63;;;3.22;;
51467;SDS011;37545;45.302;-122.946;2023-11-22T09:00:11;7.40;;;3.60;;
51467;SDS011;37545;45.302;-122.946;2023-11-22T09:02:42;7.00;;;3.45;;
51467;SDS011;37545;45.302;-122.946;2023-11-22T09:05:10;8.73;;;3.95;;
51467;SDS011;37545;45.302;-122.946;2023-11-22T09:07:42;5.47;;;3.38;;
51467;SDS011;37545;45.302;-122.946;2023-11-22T09:10:12;9.57;;;3.83;;
51467;SDS011;37545;45.302;-122.946;2023-11-22T09:12:41;8.10;;;3.45;;
51467;SDS011;37545;45.302;-122.946;2023-11-22T09:15:10;5.88;;;3.67;;
51467;SDS011;37545;45.302;-122.946;2023-11-22T09:17:43;10.30;;;3.83;;
51467;SDS011;37545;45.302;-122.946;2023-11-22T09:20:12;6.85;;;3.90;;
51467;SDS011;37545;45.302;-122.946;2023-11-22T09:22:43;7.80;;;3.40;;
51467;SDS011;37545;45.302;-122.946;2023-11-22T09:27:42;8.45;;;3.75;;
51467;SDS011;37545;45.302;-122.946;2023-11-22T09:30:12;8.10;;;3.47;;
51467;SDS011;37545;45.302;-122.946;2023-11-22T09:32:59;8.02;;;3.60;;
51467;SDS011;37545;45.302;-122.946;2023-11-22T09:35:28;9.25;;;4.70;;
51467;SDS011;37545;45.302;-122.946;2023-11-22T09:37:57;9.25;;;4.45;;
51467;SDS011;37545;45.302;-122.946;2023-11-22T09:40:26;9.52;;;3.88;;
51467;SDS011;37545;45.302;-122.946;2023-11-22T09:42:57;5.97;;;3.47;;
51467;SDS011;37545;45.302;-122.946;2023-11-22T09:45:28;9.77;;;3.97;;
51467;SDS011;37545;45.302;-122.946;2023-11-22T09:47:57;7.65;;;3.28;;
51467;SDS011;37545;45.302;-122.946;2023-11-22T09:50:31;9.10;;;3.93;;
51467;SDS011;37545;45.302;-122.946;2023-11-22T09:53:07;9.55;;;4.80;;
51467;SDS011;37545;45.302;-122.946;2023-11-22T09:55:40;10.15;;;4.68;;
51467;SDS011;37545;45.302;-122.946;2023-11-22T09:58:11;10.30;;;4.60;;
51467;SDS011;37545;45.302;-122.946;2023-11-22T10:00:45;9.77;;;4.88;;
51467;SDS011;37545;45.302;-122.946;2023-11-22T10:03:16;7.55;;;4.30;;
51467;SDS011;37545;45.302;-122.946;2023-11-22T10:05:46;10.00;;;4.60;;
51467;SDS011;37545;45.302;-122.946;2023-11-22T10:08:15;9.18;;;4.57;;
51467;SDS011;37545;45.302;-122.946;2023-11-22T10:10:46;10.27;;;4.85;;
51467;SDS011;37545;45.302;-122.946;2023-11-22T10:13:16;8.98;;;4.18;;
51467;SDS011;37545;45.302;-122.946;2023-11-22T10:15:46;7.85;;;4.10;;
51467;SDS011;37545;45.302;-122.946;2023-11-22T10:18:16;9.35;;;4.95;;
51467;SDS011;37545;45.302;-122.946;2023-11-22T10:20:47;15.25;;;5.13;;
51467;SDS011;37545;45.302;-122.946;2023-11-22T10:23:17;9.57;;;4.63;;
51467;SDS011;37545;45.302;-122.946;2023-11-22T10:25:50;8.82;;;4.72;;
51467;SDS011;37545;45.302;-122.946;2023-11-22T10:28:21;8.45;;;4.25;;
51467;SDS011;37545;45.302;-122.946;2023-11-22T10:30:53;10.88;;;5.28;;
51467;SDS011;37545;45.302;-122.946;2023-11-22T10:33:23;8.18;;;4.03;;
51467;SDS011;37545;45.302;-122.946;2023-11-22T10:35:52;7.72;;;3.72;;
51467;SDS011;37545;45.302;-122.946;2023-11-22T10:38:20;7.18;;;3.45;;
51467;SDS011;37545;45.302;-122.946;2023-11-22T10:40:49;7.70;;;3.63;;
51467;SDS011;37545;45.302;-122.946;2023-11-22T10:43:23;11.38;;;3.70;;
51467;SDS011;37545;45.302;-122.946;2023-11-22T10:45:55;9.30;;;3.90;;
51467;SDS011;37545;45.302;-122.946;2023-11-22T10:48:26;7.35;;;3.53;;
51467;SDS011;37545;45.302;-122.946;2023-11-22T10:50:55;6.63;;;3.60;;
51467;SDS011;37545;45.302;-122.946;2023-11-22T10:53:30;6.57;;;3.70;;
51467;SDS011;37545;45.302;-122.946;2023-11-22T10:56:03;7.72;;;2.85;;
51467;SDS011;37545;45.302;-122.946;2023-11-22T10:58:37;13.43;;;3.55;;
51467;SDS011;37545;45.302;-122.946;2023-11-22T11:01:15;7.15;;;3.35;;
51467;SDS011;37545;45.302;-122.946;2023-11-22T11:03:53;5.70;;;3.08;;
51467;SDS011;37545;45.302;-122.946;2023-11-22T11:06:26;5.30;;;3.10;;
51467;SDS011;37545;45.302;-122.946;2023-11-22T11:08:59;5.95;;;3.65;;
51467;SDS011;37545;45.302;-122.946;2023-11-22T11:11:31;7.05;;;2.95;;
51467;SDS011;37545;45.302;-122.946;2023-11-22T11:14:00;6.35;;;3.10;;
51467;SDS011;37545;45.302;-122.946;2023-11-22T11:16:30;6.97;;;2.85;;
51467;SDS011;37545;45.302;-122.946;2023-11-22T11:19:04;5.35;;;3.25;;
51467;SDS011;37545;45.302;-122.946;2023-11-22T11:21:36;5.82;;;2.70;;
51467;SDS011;37545;45.302;-122.946;2023-11-22T11:24:06;6.97;;;3.50;;
51467;SDS011;37545;45.302;-122.946;2023-11-22T11:26:35;7.72;;;3.05;;
51467;SDS011;37545;45.302;-122.946;2023-11-22T11:29:03;7.38;;;3.05;;
51467;SDS011;37545;45.302;-122.946;2023-11-22T11:31:33;4.30;;;2.95;;
51467;SDS011;37545;45.302;-122.946;2023-11-22T11:34:08;5.03;;;3.20;;
51467;SDS011;37545;45.302;-122.946;2023-11-22T11:36:39;7.47;;;3.22;;
51467;SDS011;37545;45.302;-122.946;2023-11-22T11:39:08;4.32;;;2.20;;
51467;SDS011;37545;45.302;-122.946;2023-11-22T11:41:42;12.68;;;3.38;;
51467;SDS011;37545;45.302;-122.946;2023-11-22T11:44:13;4.88;;;2.67;;
51467;SDS011;37545;45.302;-122.946;2023-11-22T11:46:41;7.05;;;2.67;;
51467;SDS011;37545;45.302;-122.946;2023-11-22T11:49:22;4.32;;;2.65;;
51467;SDS011;37545;45.302;-122.946;2023-11-22T11:51:51;9.05;;;2.45;;
51467;SDS011;37545;45.302;-122.946;2023-11-22T11:54:20;5.90;;;2.42;;
51467;SDS011;37545;45.302;-122.946;2023-11-22T11:56:48;7.57;;;3.33;;
51467;SDS011;37545;45.302;-122.946;2023-11-22T11:59:20;6.15;;;2.28;;
51467;SDS011;37545;45.302;-122.946;2023-11-22T12:01:52;6.07;;;2.80;;
51467;SDS011;37545;45.302;-122.946;2023-11-22T12:04:24;5.38;;;2.28;;
51467;SDS011;37545;45.302;-122.946;2023-11-22T12:06:53;4.63;;;2.58;;
51467;SDS011;37545;45.302;-122.946;2023-11-22T12:09:22;4.65;;;2.63;;
51467;SDS011;37545;45.302;-122.946;2023-11-22T12:11:55;4.55;;;2.17;;
51467;SDS011;37545;45.302;-122.946;2023-11-22T12:14:23;6.70;;;2.90;;
51467;SDS011;37545;45.302;-122.946;2023-11-22T12:16:52;2.58;;;2.03;;
51467;SDS011;37545;45.302;-122.946;2023-11-22T12:19:21;5.72;;;2.58;;
51467;SDS011;37545;45.302;-122.946;2023-11-22T12:21:52;5.88;;;2.50;;
51467;SDS011;37545;45.302;-122.946;2023-11-22T12:24:21;7.40;;;2.83;;
51467;SDS011;37545;45.302;-122.946;2023-11-22T12:26:50;4.32;;;2.35;;
51467;SDS011;37545;45.302;-122.946;2023-11-22T12:29:20;5.25;;;2.47;;
51467;SDS011;37545;45.302;-122.946;2023-11-22T12:31:53;5.05;;;2.65;;
51467;SDS011;37545;45.302;-122.946;2023-11-22T12:34:24;6.97;;;2.80;;
51467;SDS011;37545;45.302;-122.946;2023-11-22T12:36:59;3.83;;;2.15;;
51467;SDS011;37545;45.302;-122.946;2023-11-22T12:39:28;9.85;;;2.58;;
51467;SDS011;37545;45.302;-122.946;2023-11-22T12:41:58;8.45;;;2.42;;
51467;SDS011;37545;45.302;-122.946;2023-11-22T12:44:26;4.85;;;2.65;;
51467;SDS011;37545;45.302;-122.946;2023-11-22T12:46:55;3.65;;;2.40;;
51467;SDS011;37545;45.302;-122.946;2023-11-22T12:49:26;3.88;;;2.22;;
51467;SDS011;37545;45.302;-122.946;2023-11-22T12:51:55;5.88;;;3.33;;
51467;SDS011;37545;45.302;-122.946;2023-11-22T12:54:24;6.10;;;2.00;;
51467;SDS011;37545;45.302;-122.946;2023-11-22T12:56:53;3.97;;;2.08;;
51467;SDS011;37545;45.302;-122.946;2023-11-22T12:59:23;4.57;;;2.28;;
51467;SDS011;37545;45.302;-122.946;2023-11-22T13:01:53;3.80;;;1.98;;
51467;SDS011;37545;45.302;-122.946;2023-11-22T13:04:23;3.20;;;1.95;;
51467;SDS011;37545;45.302;-122.946;2023-11-22T13:06:53;6.50;;;2.03;;
51467;SDS011;37545;45.302;-122.946;2023-11-22T13:09:23;5.03;;;2.33;;
51467;SDS011;37545;45.302;-122.946;2023-11-22T13:11:52;5.05;;;2.40;;
51467;SDS011;37545;45.302;-122.946;2023-11-22T13:14:20;5.75;;;2.40;;
51467;SDS011;37545;45.302;-122.946;2023-11-22T13:16:49;4.95;;;2.40;;
51467;SDS011;37545;45.302;-122.946;2023-11-22T13:19:17;3.35;;;2.17;;
51467;SDS011;37545;45.302;-122.946;2023-11-22T13:21:46;4.80;;;2.22;;
51467;SDS011;37545;45.302;-122.946;2023-11-22T13:24:16;6.35;;;2.72;;
51467;SDS011;37545;45.302;-122.946;2023-11-22T13:26:46;6.13;;;2.67;;
51467;SDS011;37545;45.302;-122.946;2023-11-22T13:29:14;4.65;;;2.47;;
51467;SDS011;37545;45.302;-122.946;2023-11-22T13:31:44;5.43;;;2.72;;
51467;SDS011;37545;45.302;-122.946;2023-11-22T13:34:19;5.10;;;2.47;;
51467;SDS011;37545;45.302;-122.946;2023-11-22T13:36:47;8.85;;;2.38;;
51467;SDS011;37545;45.302;-122.946;2023-11-22T13:39:17;5.07;;;2.25;;
51467;SDS011;37545;45.302;-122.946;2023-11-22T13:41:46;6.82;;;3.20;;
51467;SDS011;37545;45.302;-122.946;2023-11-22T13:44:15;7.72;;;3.17;;
51467;SDS011;37545;45.302;-122.946;2023-11-22T13:46:44;4.45;;;2.00;;
51467;SDS011;37545;45.302;-122.946;2023-11-22T13:49:14;4.75;;;2.55;;
51467;SDS011;37545;45.302;-122.946;2023-11-22T13:51:42;7.22;;;2.50;;
51467;SDS011;37545;45.302;-122.946;2023-11-22T13:54:11;3.28;;;2.00;;
51467;SDS011;37545;45.302;-122.946;2023-11-22T13:56:43;5.30;;;2.00;;
51467;SDS011;37545;45.302;-122.946;2023-11-22T13:59:15;4.45;;;2.58;;
51467;SDS011;37545;45.302;-122.946;2023-11-22T14:01:43;6.22;;;1.92;;
51467;SDS011;37545;45.302;-122.946;2023-11-22T14:04:12;2.60;;;1.60;;
51467;SDS011;37545;45.302;-122.946;2023-11-22T14:06:41;3.75;;;1.90;;
51467;SDS011;37545;45.302;-122.946;2023-11-22T14:09:09;4.85;;;2.30;;
51467;SDS011;37545;45.302;-122.946;2023-11-22T14:11:42;3.40;;;1.85;;
51467;SDS011;37545;45.302;-122.946;2023-11-22T14:14:10;5.00;;;2.05;;
51467;SDS011;37545;45.302;-122.946;2023-11-22T14:16:40;2.78;;;1.48;;
51467;SDS011;37545;45.302;-122.946;2023-11-22T14:19:10;2.55;;;1.77;;
51467;SDS011;37545;45.302;-122.946;2023-11-22T14:21:39;3.03;;;1.60;;